createdAt,value
2022-10-08T00:01:31.313Z,57.43
2022-10-08T00:04:00.067Z,57.23
2022-10-08T00:06:31.235Z,57.25
2022-10-08T00:09:02.270Z,57.32
2022-10-08T00:11:35.569Z,57.25
2022-10-08T00:14:04.954Z,57.29
2022-10-08T00:16:35.166Z,57.34
2022-10-08T00:19:05.846Z,57.16
2022-10-08T00:21:36.017Z,57.47
2022-10-08T00:24:06.065Z,57.18
2022-10-08T00:26:42.567Z,57.43
2022-10-08T00:29:13.611Z,57.48
2022-10-08T00:31:44.426Z,57.22
2022-10-08T00:34:16.785Z,57.29
2022-10-08T00:36:45.739Z,57.50
2022-10-08T00:39:15.317Z,57.54
2022-10-08T00:41:46.980Z,57.45
2022-10-08T00:44:55.031Z,57.57
2022-10-08T00:47:31.242Z,57.20
2022-10-08T00:50:01.356Z,57.30
2022-10-08T00:52:33.620Z,57.61
2022-10-08T00:55:06.390Z,57.00
2022-10-08T00:57:37.196Z,57.22
2022-10-08T01:00:08.657Z,57.19
2022-10-08T01:02:37.036Z,57.35
2022-10-08T01:05:06.859Z,57.12
2022-10-08T01:07:40.390Z,56.56
2022-10-08T01:10:13.134Z,57.14
2022-10-08T01:12:48.367Z,56.85
2022-10-08T01:15:23.624Z,56.92
2022-10-08T01:17:59.751Z,57.19
2022-10-08T01:20:46.043Z,56.96
2022-10-08T01:23:41.205Z,56.85
2022-10-08T01:26:22.773Z,57.09
2022-10-08T01:28:57.200Z,57.02
2022-10-08T01:31:29.154Z,56.89
2022-10-08T01:34:00.407Z,56.82
2022-10-08T01:36:33.873Z,56.91
2022-10-08T01:39:06.325Z,57.06
2022-10-08T01:41:35.242Z,57.18
2022-10-08T01:44:07.819Z,56.95
2022-10-08T01:46:38.281Z,57.20
2022-10-08T01:49:10.442Z,56.91
2022-10-08T01:51:42.318Z,56.84
2022-10-08T01:54:11.820Z,57.03
2022-10-08T01:56:41.165Z,56.91
2022-10-08T01:59:14.294Z,57.00
2022-10-08T02:01:53.594Z,57.00
2022-10-08T02:04:34.581Z,56.99
2022-10-08T02:07:07.370Z,56.93
2022-10-08T02:09:38.226Z,57.21
2022-10-08T02:12:07.402Z,57.01
2022-10-08T02:14:39.093Z,57.01
2022-10-08T02:17:17.117Z,56.79
2022-10-08T02:19:50.463Z,57.05
2022-10-08T02:22:20.811Z,56.92
2022-10-08T02:24:53.578Z,56.94
2022-10-08T02:27:27.733Z,56.95
2022-10-08T02:30:04.049Z,56.92
2022-10-08T02:32:36.775Z,56.98
2022-10-08T02:35:09.081Z,56.94
2022-10-08T02:37:41.364Z,56.59
2022-10-08T02:40:12.639Z,56.77
2022-10-08T02:42:44.750Z,57.02
2022-10-08T02:45:17.919Z,56.88
2022-10-08T02:47:48.933Z,56.61
2022-10-08T02:50:21.408Z,56.83
2022-10-08T02:52:51.045Z,56.85
2022-10-08T02:55:25.679Z,56.46
2022-10-08T02:57:59.036Z,56.78
2022-10-08T03:00:35.302Z,56.79
2022-10-08T03:03:09.487Z,56.77
2022-10-08T03:05:39.858Z,56.80
2022-10-08T03:08:09.773Z,56.95
2022-10-08T03:10:39.520Z,56.99
2022-10-08T03:13:08.924Z,56.68
2022-10-08T03:15:39.865Z,56.83
2022-10-08T03:18:10.258Z,56.73
2022-10-08T03:20:45.462Z,57.06
2022-10-08T03:23:15.828Z,56.52
2022-10-08T03:25:44.242Z,56.74
2022-10-08T03:28:12.952Z,57.08
2022-10-08T03:30:42.894Z,56.70
2022-10-08T03:33:11.456Z,56.44
2022-10-08T03:35:45.690Z,57.15
2022-10-08T03:38:15.423Z,56.76
2022-10-08T03:40:44.039Z,56.71
2022-10-08T03:43:12.495Z,56.80
2022-10-08T03:45:50.682Z,56.85
2022-10-08T03:48:19.751Z,56.72
2022-10-08T03:50:53.019Z,56.88
2022-10-08T03:53:21.702Z,56.32
2022-10-08T03:55:50.617Z,56.94
2022-10-08T03:58:19.242Z,56.58
2022-10-08T04:00:59.056Z,56.61
2022-10-08T04:03:28.288Z,56.71
2022-10-08T04:05:57.080Z,56.71
2022-10-08T04:08:25.845Z,56.75
2022-10-08T04:10:54.547Z,56.98
2022-10-08T04:13:23.395Z,56.76
2022-10-08T04:15:51.861Z,56.59
2022-10-08T04:18:21.547Z,56.38
2022-10-08T04:20:50.012Z,57.01
2022-10-08T04:23:18.537Z,56.91
2022-10-08T04:25:50.832Z,56.78
2022-10-08T04:28:19.705Z,56.57
2022-10-08T04:30:56.358Z,56.59
2022-10-08T04:33:26.418Z,56.70
2022-10-08T04:35:59.731Z,56.54
2022-10-08T04:38:29.083Z,56.54
2022-10-08T04:41:05.295Z,56.88
2022-10-08T04:43:34.296Z,56.58
2022-10-08T04:46:03.188Z,56.74
2022-10-08T04:48:32.995Z,56.55
2022-10-08T04:51:06.849Z,56.96
2022-10-08T04:53:38.050Z,56.84
2022-10-08T04:56:11.356Z,56.41
2022-10-08T04:58:39.909Z,56.41
2022-10-08T05:01:11.008Z,56.75
2022-10-08T05:03:41.992Z,56.58
2022-10-08T05:06:11.145Z,56.59
2022-10-08T05:08:39.937Z,56.29
2022-10-08T05:11:08.933Z,56.67
2022-10-08T05:13:37.786Z,56.72
2022-10-08T05:16:07.193Z,56.44
2022-10-08T05:18:36.376Z,56.58
2022-10-08T05:21:08.714Z,56.76
2022-10-08T05:23:37.375Z,56.36
2022-10-08T05:26:13.338Z,56.82
2022-10-08T05:28:41.899Z,56.66
2022-10-08T05:31:10.644Z,56.70
2022-10-08T05:33:39.456Z,56.71
2022-10-08T05:36:10.661Z,56.57
2022-10-08T05:38:39.212Z,56.37
2022-10-08T05:41:13.513Z,56.41
2022-10-08T05:43:42.692Z,56.47
2022-10-08T05:46:11.277Z,56.53
2022-10-08T05:48:40.575Z,56.42
2022-10-08T05:51:12.267Z,56.36
2022-10-08T05:53:41.777Z,56.60
2022-10-08T05:56:11.923Z,56.73
2022-10-08T05:58:41.570Z,56.35
2022-10-08T06:01:13.457Z,56.60
2022-10-08T06:03:42.406Z,57.00
2022-10-08T06:06:13.518Z,56.46
2022-10-08T06:08:42.342Z,56.49
2022-10-08T06:11:10.856Z,56.34
2022-10-08T06:13:39.359Z,56.54
2022-10-08T06:16:10.036Z,56.42
2022-10-08T06:18:41.215Z,56.72
2022-10-08T06:21:12.480Z,56.39
2022-10-08T06:23:45.832Z,56.26
2022-10-08T06:26:14.589Z,56.36
2022-10-08T06:28:43.111Z,56.34
2022-10-08T06:31:12.812Z,56.40
2022-10-08T06:33:42.260Z,56.41
2022-10-08T06:36:17.272Z,56.14
2022-10-08T06:38:50.056Z,56.31
2022-10-08T06:41:18.631Z,56.57
2022-10-08T06:43:47.637Z,56.64
2022-10-08T06:46:16.463Z,56.12
2022-10-08T06:48:45.392Z,56.29
2022-10-08T06:51:18.879Z,56.35
2022-10-08T06:53:52.985Z,56.61
2022-10-08T06:56:22.017Z,56.64
2022-10-08T06:58:50.778Z,56.16
2022-10-08T07:01:22.595Z,56.38
2022-10-08T07:03:52.535Z,56.30
2022-10-08T07:06:22.637Z,56.24
2022-10-08T07:08:52.960Z,56.51
2022-10-08T07:11:22.299Z,56.49
2022-10-08T07:13:50.869Z,56.66
2022-10-08T07:16:21.613Z,56.50
2022-10-08T07:18:51.703Z,56.27
2022-10-08T07:21:23.057Z,56.16
2022-10-08T07:23:51.738Z,56.37
2022-10-08T07:26:21.750Z,56.28
2022-10-08T07:28:52.320Z,56.27
2022-10-08T07:31:22.461Z,56.19
2022-10-08T07:33:51.608Z,56.05
2022-10-08T07:36:21.879Z,56.35
2022-10-08T07:38:55.803Z,56.28
2022-10-08T07:41:25.036Z,56.15
2022-10-08T07:43:54.669Z,56.35
2022-10-08T07:46:23.517Z,56.37
2022-10-08T07:48:52.002Z,56.34
2022-10-08T07:51:21.499Z,56.35
2022-10-08T07:53:50.181Z,56.50
2022-10-08T07:56:21.817Z,56.55
2022-10-08T07:58:50.971Z,56.38
2022-10-08T08:01:22.484Z,56.09
2022-10-08T08:03:55.264Z,56.56
2022-10-08T08:06:25.215Z,56.27
2022-10-08T08:08:55.365Z,56.44
2022-10-08T08:11:26.302Z,56.48
2022-10-08T08:13:54.946Z,56.17
2022-10-08T08:16:26.368Z,56.64
2022-10-08T08:18:56.218Z,56.13
2022-10-08T08:21:26.667Z,56.43
2022-10-08T08:23:57.527Z,56.38
2022-10-08T08:26:29.350Z,56.44
2022-10-08T08:29:00.883Z,56.54
2022-10-08T08:31:30.940Z,56.36
2022-10-08T08:34:01.648Z,56.41
2022-10-08T08:36:31.881Z,56.30
2022-10-08T08:39:01.383Z,56.21
2022-10-08T08:41:46.879Z,56.38
2022-10-08T08:44:20.012Z,56.29
2022-10-08T08:46:53.096Z,56.14
2022-10-08T08:49:28.336Z,56.18
2022-10-08T08:51:58.354Z,56.31
2022-10-08T08:54:27.103Z,56.38
2022-10-08T08:56:57.322Z,56.41
2022-10-08T08:59:28.178Z,56.65
2022-10-08T09:01:59.539Z,56.57
2022-10-08T09:04:35.131Z,56.32
2022-10-08T09:07:07.458Z,56.71
2022-10-08T09:09:39.794Z,56.17
2022-10-08T09:12:20.769Z,56.51
2022-10-08T09:14:54.537Z,56.54
2022-10-08T09:17:30.151Z,56.41
2022-10-08T09:20:00.738Z,56.31
2022-10-08T09:22:31.316Z,56.53
2022-10-08T09:25:01.601Z,56.67
2022-10-08T09:27:50.086Z,56.36
2022-10-08T09:30:30.935Z,56.40
2022-10-08T09:33:01.852Z,56.36
2022-10-08T09:35:32.869Z,56.39
2022-10-08T09:38:05.714Z,55.96
2022-10-08T09:40:35.051Z,56.20
2022-10-08T09:43:16.823Z,56.06
2022-10-08T09:45:47.266Z,56.17
2022-10-08T09:48:21.346Z,56.20
2022-10-08T09:50:56.697Z,56.08
2022-10-08T09:53:28.419Z,56.20
2022-10-08T09:55:59.703Z,55.95
2022-10-08T09:58:32.285Z,56.55
2022-10-08T10:01:07.071Z,56.43
2022-10-08T10:03:36.987Z,56.01
2022-10-08T10:06:06.226Z,56.37
2022-10-08T10:08:52.114Z,55.90
2022-10-08T10:11:25.910Z,56.10
2022-10-08T10:13:56.301Z,56.35
2022-10-08T10:16:26.903Z,55.94
2022-10-08T10:18:58.996Z,56.29
2022-10-08T10:21:38.597Z,56.31
2022-10-08T10:24:22.939Z,56.10
2022-10-08T10:26:56.677Z,56.69
2022-10-08T10:29:30.115Z,56.37
2022-10-08T10:32:03.777Z,56.14
2022-10-08T10:34:36.372Z,56.53
2022-10-08T10:37:08.266Z,56.29
2022-10-08T10:39:42.956Z,56.37
2022-10-08T10:42:16.829Z,56.32
2022-10-08T10:44:54.040Z,56.38
2022-10-08T10:47:31.632Z,56.47
2022-10-08T10:50:02.101Z,56.38
2022-10-08T10:52:42.835Z,56.19
2022-10-08T10:55:21.718Z,56.32
2022-10-08T10:58:10.855Z,56.48
2022-10-08T11:00:47.194Z,56.03
2022-10-08T11:03:20.412Z,56.16
2022-10-08T11:05:52.609Z,56.38
2022-10-08T11:08:31.288Z,56.06
2022-10-08T11:11:11.582Z,56.17
2022-10-08T11:13:52.649Z,56.16
2022-10-08T11:16:34.970Z,55.89
2022-10-08T11:19:05.861Z,56.05
2022-10-08T11:21:49.268Z,56.37
2022-10-08T11:24:29.259Z,56.08
2022-10-08T11:27:02.223Z,55.85
2022-10-08T11:29:35.536Z,56.08
2022-10-08T11:32:12.681Z,56.22
2022-10-08T11:34:44.800Z,56.16
2022-10-08T11:37:17.451Z,55.98
2022-10-08T11:39:53.029Z,56.43
2022-10-08T11:42:27.130Z,56.59
2022-10-08T11:44:55.925Z,56.08
2022-10-08T11:47:55.268Z,56.33
2022-10-08T11:50:28.130Z,56.50
2022-10-08T11:52:59.133Z,55.99
2022-10-08T11:55:32.350Z,56.04
2022-10-08T11:58:08.094Z,55.81
2022-10-08T12:00:40.739Z,55.83
2022-10-08T12:03:23.404Z,56.03
2022-10-08T12:05:54.812Z,56.04
2022-10-08T12:08:48.975Z,56.08
2022-10-08T12:11:54.808Z,56.15
2022-10-08T12:14:47.811Z,56.35
2022-10-08T12:17:17.125Z,56.28
2022-10-08T12:20:03.455Z,56.06
2022-10-08T12:22:46.993Z,55.95
2022-10-08T12:25:39.783Z,56.29
2022-10-08T12:28:54.042Z,56.12
2022-10-08T12:31:29.649Z,56.38
2022-10-08T12:34:02.705Z,56.15
2022-10-08T12:36:40.560Z,56.43
2022-10-08T12:39:14.846Z,56.07
2022-10-08T12:41:52.406Z,56.40
2022-10-08T12:44:31.970Z,56.56
2022-10-08T12:47:07.261Z,56.34
2022-10-08T12:49:39.003Z,56.36
2022-10-08T12:52:11.292Z,56.47
2022-10-08T12:54:41.441Z,56.09
2022-10-08T12:57:11.964Z,56.06
2022-10-08T12:59:41.523Z,56.22
2022-10-08T13:02:28.594Z,56.31
2022-10-08T13:04:57.141Z,56.22
2022-10-08T13:07:29.680Z,56.28
2022-10-08T13:09:59.695Z,56.07
2022-10-08T13:12:28.438Z,56.38
2022-10-08T13:15:01.273Z,56.31
2022-10-08T13:17:31.330Z,56.31
2022-10-08T13:20:08.045Z,56.20
2022-10-08T13:22:38.180Z,56.45
2022-10-08T13:25:28.081Z,56.25
2022-10-08T13:28:14.010Z,56.46
2022-10-08T13:30:44.619Z,56.06
2022-10-08T13:33:17.655Z,56.32
2022-10-08T13:35:52.962Z,56.09
2022-10-08T13:38:26.098Z,56.01
2022-10-08T13:40:58.477Z,56.18
2022-10-08T13:43:27.205Z,55.87
2022-10-08T13:45:55.697Z,56.22
2022-10-08T13:48:24.337Z,55.98
2022-10-08T13:50:53.401Z,56.01
2022-10-08T13:53:24.435Z,56.03
2022-10-08T13:55:52.831Z,55.96
2022-10-08T13:58:21.680Z,55.90
2022-10-08T14:00:50.503Z,55.98
2022-10-08T14:03:18.950Z,55.89
2022-10-08T14:05:48.736Z,55.52
2022-10-08T14:08:19.056Z,55.92
2022-10-08T14:10:49.096Z,55.82
2022-10-08T14:13:18.026Z,55.61
2022-10-08T14:15:46.635Z,55.88
2022-10-08T14:18:15.237Z,55.94
2022-10-08T14:20:43.808Z,55.99
2022-10-08T14:23:14.119Z,55.92
2022-10-08T14:25:42.575Z,56.17
2022-10-08T14:28:13.511Z,56.21
2022-10-08T14:30:42.034Z,56.31
2022-10-08T14:33:11.799Z,56.11
2022-10-08T14:35:40.634Z,55.85
2022-10-08T14:38:09.836Z,56.09
2022-10-08T14:40:39.155Z,56.16
2022-10-08T14:43:07.831Z,55.99
2022-10-08T14:45:37.922Z,55.99
2022-10-08T14:48:06.491Z,56.07
2022-10-08T14:50:35.027Z,56.10
2022-10-08T14:53:04.061Z,56.22
2022-10-08T14:55:41.041Z,56.21
2022-10-08T14:58:21.432Z,56.22
2022-10-08T15:00:55.249Z,56.40
2022-10-08T15:03:24.304Z,56.05
2022-10-08T15:05:54.327Z,56.29
2022-10-08T15:08:22.832Z,55.95
2022-10-08T15:10:51.320Z,56.03
2022-10-08T15:13:20.005Z,56.05
2022-10-08T15:15:48.554Z,56.11
2022-10-08T15:18:19.422Z,56.05
2022-10-08T15:20:54.961Z,56.06
2022-10-08T15:23:23.893Z,55.84
2022-10-08T15:25:57.244Z,56.07
2022-10-08T15:28:27.989Z,55.94
2022-10-08T15:31:08.897Z,55.95
2022-10-08T15:33:43.308Z,56.32
2022-10-08T15:36:19.273Z,56.29
2022-10-08T15:38:48.614Z,56.48
2022-10-08T15:41:18.275Z,56.20
2022-10-08T15:43:47.163Z,56.19
2022-10-08T15:46:17.725Z,55.99
2022-10-08T15:48:54.444Z,56.40
2022-10-08T15:51:24.075Z,55.93
2022-10-08T15:53:52.653Z,56.24
2022-10-08T15:56:21.233Z,56.05
2022-10-08T15:58:51.263Z,56.00
2022-10-08T16:01:23.255Z,55.94
2022-10-08T16:03:55.567Z,55.94
2022-10-08T16:06:26.103Z,56.08
2022-10-08T16:08:54.700Z,55.82
2022-10-08T16:11:25.749Z,55.79
2022-10-08T16:13:56.735Z,56.01
2022-10-08T16:16:25.642Z,55.83
2022-10-08T16:18:58.278Z,56.12
2022-10-08T16:21:27.251Z,56.21
2022-10-08T16:23:56.671Z,56.27
2022-10-08T16:26:26.205Z,56.15
2022-10-08T16:28:56.401Z,56.12
2022-10-08T16:31:26.381Z,56.03
2022-10-08T16:33:57.660Z,56.27
2022-10-08T16:36:27.212Z,56.24
2022-10-08T16:38:56.492Z,56.61
2022-10-08T16:41:26.370Z,56.37
2022-10-08T16:43:56.476Z,56.04
2022-10-08T16:46:27.502Z,56.33
2022-10-08T16:48:59.409Z,56.39
2022-10-08T16:51:29.813Z,55.98
2022-10-08T16:53:59.740Z,56.52
2022-10-08T16:56:30.833Z,56.23
2022-10-08T16:59:01.324Z,56.51
2022-10-08T17:01:30.441Z,56.47
2022-10-08T17:04:00.704Z,56.26
2022-10-08T17:06:30.046Z,56.39
2022-10-08T17:08:59.124Z,56.45
2022-10-08T17:11:27.572Z,56.75
2022-10-08T17:13:57.923Z,56.59
2022-10-08T17:16:28.117Z,56.48
2022-10-08T17:18:58.108Z,56.40
2022-10-08T17:21:29.599Z,56.50
2022-10-08T17:23:58.577Z,56.77
2022-10-08T17:26:28.629Z,56.59
2022-10-08T17:28:57.382Z,56.19
2022-10-08T17:31:28.844Z,56.39
2022-10-08T17:33:57.450Z,56.70
2022-10-08T17:36:28.502Z,56.85
2022-10-08T17:38:58.841Z,56.45
2022-10-08T17:41:28.521Z,56.88
2022-10-08T17:43:58.571Z,56.73
2022-10-08T17:46:29.310Z,56.72
2022-10-08T17:48:58.998Z,56.77
2022-10-08T17:51:30.171Z,57.05
2022-10-08T17:54:00.421Z,57.19
2022-10-08T17:56:29.542Z,56.89
2022-10-08T17:58:58.766Z,57.00
2022-10-08T18:01:29.238Z,56.91
2022-10-08T18:03:59.958Z,57.02
2022-10-08T18:06:30.928Z,57.02
2022-10-08T18:09:01.057Z,56.68
2022-10-08T18:11:31.511Z,56.65
2022-10-08T18:14:00.671Z,56.96
2022-10-08T18:16:29.503Z,56.78
2022-10-08T18:18:58.084Z,57.33
2022-10-08T18:21:27.429Z,56.92
2022-10-08T18:23:59.059Z,56.88
2022-10-08T18:26:28.766Z,56.90
2022-10-08T18:28:58.432Z,56.74
2022-10-08T18:31:28.677Z,56.83
2022-10-08T18:33:59.899Z,57.15
2022-10-08T18:36:30.088Z,57.03
2022-10-08T18:39:01.551Z,57.20
2022-10-08T18:41:31.501Z,57.13
2022-10-08T18:44:00.774Z,57.31
2022-10-08T18:46:29.847Z,57.15
2022-10-08T18:48:58.471Z,57.71
2022-10-08T18:51:28.484Z,57.34
2022-10-08T18:53:58.286Z,57.34
2022-10-08T18:56:29.737Z,57.27
2022-10-08T18:58:59.489Z,57.72
2022-10-08T19:01:29.939Z,57.32
2022-10-08T19:03:59.962Z,57.52
2022-10-08T19:06:31.378Z,57.62
2022-10-08T19:09:01.487Z,57.58
2022-10-08T19:11:33.828Z,57.75
2022-10-08T19:14:02.720Z,57.23
2022-10-08T19:16:31.541Z,57.53
2022-10-08T19:19:02.403Z,57.05
2022-10-08T19:21:32.304Z,57.05
2022-10-08T19:24:01.335Z,57.11
2022-10-08T19:26:31.503Z,57.50
2022-10-08T19:29:01.396Z,57.29
2022-10-08T19:31:31.595Z,57.15
2022-10-08T19:34:01.371Z,57.17
2022-10-08T19:36:32.434Z,56.99
2022-10-08T19:39:02.194Z,57.07
2022-10-08T19:41:32.305Z,57.24
2022-10-08T19:44:01.577Z,57.38
2022-10-08T19:46:31.090Z,57.24
2022-10-08T19:49:01.872Z,56.79
2022-10-08T19:51:31.859Z,57.15
2022-10-08T19:54:01.716Z,57.25
2022-10-08T19:56:32.040Z,56.99
2022-10-08T19:59:01.901Z,56.88
2022-10-08T20:01:32.638Z,56.77
2022-10-08T20:04:02.608Z,56.73
2022-10-08T20:06:32.810Z,56.88
2022-10-08T20:09:03.083Z,57.21
2022-10-08T20:11:33.791Z,56.67
2022-10-08T20:14:02.522Z,56.78
2022-10-08T20:16:32.366Z,57.02
2022-10-08T20:19:02.463Z,57.14
2022-10-08T20:21:33.669Z,56.90
2022-10-08T20:24:02.597Z,56.88
2022-10-08T20:26:33.374Z,57.04
2022-10-08T20:29:04.070Z,57.19
2022-10-08T20:31:34.152Z,57.11
2022-10-08T20:34:03.942Z,57.48
2022-10-08T20:36:33.198Z,57.48
2022-10-08T20:39:02.043Z,57.16
2022-10-08T20:41:31.531Z,57.21
2022-10-08T20:44:03.092Z,57.37
2022-10-08T20:46:32.617Z,57.36
2022-10-08T20:49:01.584Z,57.12
2022-10-08T20:51:31.049Z,57.21
2022-10-08T20:54:01.581Z,57.49
2022-10-08T20:56:34.712Z,57.42
2022-10-08T20:59:07.928Z,57.57
2022-10-08T21:01:39.047Z,57.67
2022-10-08T21:04:08.525Z,57.73
2022-10-08T21:06:39.176Z,57.31
2022-10-08T21:09:07.977Z,57.16
2022-10-08T21:11:37.324Z,57.72
2022-10-08T21:14:08.939Z,57.57
2022-10-08T21:16:39.335Z,57.45
2022-10-08T21:19:09.100Z,57.50
2022-10-08T21:21:37.660Z,57.53
2022-10-08T21:24:06.847Z,57.08
2022-10-08T21:26:37.210Z,57.66
2022-10-08T21:29:08.882Z,57.89
2022-10-08T21:31:39.576Z,57.64
2022-10-08T21:34:08.583Z,57.72
2022-10-08T21:36:38.651Z,57.73
2022-10-08T21:39:08.925Z,57.73
2022-10-08T21:41:38.428Z,57.96
2022-10-08T21:44:09.242Z,57.80
2022-10-08T21:46:40.219Z,57.66
2022-10-08T21:49:11.694Z,57.75
2022-10-08T21:51:40.204Z,57.84
2022-10-08T21:54:10.727Z,57.47
2022-10-08T21:56:40.293Z,57.71
2022-10-08T21:59:12.514Z,57.77
2022-10-08T22:01:42.581Z,57.80
2022-10-08T22:04:12.468Z,57.96
2022-10-08T22:06:43.038Z,57.52
2022-10-08T22:09:13.953Z,57.66
2022-10-08T22:11:42.992Z,57.90
2022-10-08T22:14:12.935Z,57.84
2022-10-08T22:16:41.607Z,57.94
2022-10-08T22:19:10.175Z,57.98
2022-10-08T22:21:38.972Z,58.02
2022-10-08T22:24:07.667Z,57.94
2022-10-08T22:26:37.750Z,58.06
2022-10-08T22:29:06.805Z,57.99
2022-10-08T22:31:36.963Z,57.96
2022-10-08T22:34:05.646Z,58.03
2022-10-08T22:36:37.640Z,58.04
2022-10-08T22:39:06.533Z,58.04
2022-10-08T22:41:35.478Z,57.81
2022-10-08T22:44:04.905Z,58.20
2022-10-08T22:46:38.645Z,58.23
2022-10-08T22:49:08.811Z,58.12
2022-10-08T22:51:37.898Z,58.04
2022-10-08T22:54:06.553Z,58.00
2022-10-08T22:56:37.799Z,58.40
2022-10-08T22:59:06.246Z,58.20
2022-10-08T23:01:34.850Z,58.18
2022-10-08T23:04:04.762Z,58.17
2022-10-08T23:06:34.731Z,57.79
2022-10-08T23:09:06.072Z,58.46
2022-10-08T23:11:35.182Z,58.27
2022-10-08T23:14:04.132Z,58.11
2022-10-08T23:16:33.926Z,58.36
2022-10-08T23:19:05.798Z,58.08
2022-10-08T23:21:34.608Z,58.36
2022-10-08T23:24:03.380Z,58.23
2022-10-08T23:26:32.306Z,58.23
2022-10-08T23:29:01.727Z,58.28
2022-10-08T23:31:31.777Z,58.21
2022-10-08T23:34:01.065Z,58.40
2022-10-08T23:36:32.847Z,58.31
2022-10-08T23:39:01.742Z,58.36
2022-10-08T23:41:30.185Z,58.23
2022-10-08T23:43:59.162Z,58.60
2022-10-08T23:46:29.109Z,58.53
2022-10-08T23:48:58.350Z,58.54
2022-10-08T23:51:28.133Z,58.45
2022-10-08T23:53:58.094Z,58.16
2022-10-08T23:56:26.583Z,58.46
2022-10-08T23:58:55.065Z,58.52
